sensor_id;sensor_type;location;lat;lon;timestamp;P1;durP1;ratioP1;P2;durP2;ratioP2
8327;SDS011;4201;48.754;8.864;2022-12-11T00:01:07;14.23;;;11.10;;
8327;SDS011;4201;48.754;8.864;2022-12-11T00:03:35;16.13;;;10.87;;
8327;SDS011;4201;48.754;8.864;2022-12-11T00:06:03;18.43;;;11.97;;
8327;SDS011;4201;48.754;8.864;2022-12-11T00:08:29;16.27;;;11.50;;
8327;SDS011;4201;48.754;8.864;2022-12-11T00:10:55;19.43;;;12.50;;
8327;SDS011;4201;48.754;8.864;2022-12-11T00:13:22;19.50;;;11.63;;
8327;SDS011;4201;48.754;8.864;2022-12-11T00:15:48;18.63;;;12.70;;
8327;SDS011;4201;48.754;8.864;2022-12-11T00:18:14;19.50;;;12.60;;
8327;SDS011;4201;48.754;8.864;2022-12-11T00:20:43;16.63;;;11.97;;
8327;SDS011;4201;48.754;8.864;2022-12-11T00:23:10;18.67;;;12.10;;
8327;SDS011;4201;48.754;8.864;2022-12-11T00:25:39;16.83;;;11.70;;
8327;SDS011;4201;48.754;8.864;2022-12-11T00:28:05;18.87;;;12.07;;
8327;SDS011;4201;48.754;8.864;2022-12-11T00:30:32;17.70;;;12.00;;
8327;SDS011;4201;48.754;8.864;2022-12-11T00:32:58;21.50;;;12.60;;
8327;SDS011;4201;48.754;8.864;2022-12-11T00:35:24;20.13;;;13.73;;
8327;SDS011;4201;48.754;8.864;2022-12-11T00:37:52;23.60;;;14.43;;
8327;SDS011;4201;48.754;8.864;2022-12-11T00:40:18;21.37;;;14.67;;
8327;SDS011;4201;48.754;8.864;2022-12-11T00:42:45;24.17;;;14.33;;
8327;SDS011;4201;48.754;8.864;2022-12-11T00:45:11;23.30;;;14.23;;
8327;SDS011;4201;48.754;8.864;2022-12-11T00:47:37;22.30;;;14.63;;
8327;SDS011;4201;48.754;8.864;2022-12-11T00:50:04;23.50;;;14.13;;
8327;SDS011;4201;48.754;8.864;2022-12-11T00:52:30;20.93;;;14.27;;
8327;SDS011;4201;48.754;8.864;2022-12-11T00:54:58;25.87;;;13.80;;
8327;SDS011;4201;48.754;8.864;2022-12-11T00:57:24;21.20;;;13.60;;
8327;SDS011;4201;48.754;8.864;2022-12-11T00:59:51;17.23;;;12.90;;
8327;SDS011;4201;48.754;8.864;2022-12-11T01:02:17;23.47;;;15.03;;
8327;SDS011;4201;48.754;8.864;2022-12-11T01:04:43;21.47;;;14.03;;
8327;SDS011;4201;48.754;8.864;2022-12-11T01:07:09;24.67;;;13.77;;
8327;SDS011;4201;48.754;8.864;2022-12-11T01:09:36;21.50;;;12.97;;
8327;SDS011;4201;48.754;8.864;2022-12-11T01:12:29;21.23;;;15.00;;
8327;SDS011;4201;48.754;8.864;2022-12-11T01:14:56;21.70;;;13.43;;
8327;SDS011;4201;48.754;8.864;2022-12-11T01:17:22;23.50;;;14.93;;
8327;SDS011;4201;48.754;8.864;2022-12-11T01:19:49;22.80;;;14.13;;
8327;SDS011;4201;48.754;8.864;2022-12-11T01:22:17;19.80;;;13.60;;
8327;SDS011;4201;48.754;8.864;2022-12-11T01:24:44;21.73;;;14.10;;
8327;SDS011;4201;48.754;8.864;2022-12-11T01:27:10;24.27;;;14.90;;
8327;SDS011;4201;48.754;8.864;2022-12-11T01:29:38;25.10;;;14.57;;
8327;SDS011;4201;48.754;8.864;2022-12-11T01:32:04;21.53;;;15.70;;
8327;SDS011;4201;48.754;8.864;2022-12-11T01:34:31;21.53;;;13.10;;
8327;SDS011;4201;48.754;8.864;2022-12-11T01:36:58;19.90;;;13.50;;
8327;SDS011;4201;48.754;8.864;2022-12-11T01:39:25;18.67;;;12.70;;
8327;SDS011;4201;48.754;8.864;2022-12-11T01:41:55;19.70;;;12.67;;
8327;SDS011;4201;48.754;8.864;2022-12-11T01:47:07;22.30;;;14.03;;
8327;SDS011;4201;48.754;8.864;2022-12-11T01:49:34;18.87;;;13.30;;
8327;SDS011;4201;48.754;8.864;2022-12-11T01:52:02;18.20;;;12.20;;
8327;SDS011;4201;48.754;8.864;2022-12-11T01:54:31;20.00;;;12.97;;
8327;SDS011;4201;48.754;8.864;2022-12-11T01:56:58;16.63;;;12.07;;
8327;SDS011;4201;48.754;8.864;2022-12-11T01:59:25;18.03;;;12.20;;
8327;SDS011;4201;48.754;8.864;2022-12-11T02:01:53;19.10;;;11.97;;
8327;SDS011;4201;48.754;8.864;2022-12-11T02:04:21;17.10;;;11.40;;
8327;SDS011;4201;48.754;8.864;2022-12-11T02:06:49;18.00;;;11.23;;
8327;SDS011;4201;48.754;8.864;2022-12-11T02:09:16;21.10;;;12.90;;
8327;SDS011;4201;48.754;8.864;2022-12-11T02:11:46;23.07;;;13.57;;
8327;SDS011;4201;48.754;8.864;2022-12-11T02:14:17;20.93;;;12.37;;
8327;SDS011;4201;48.754;8.864;2022-12-11T02:16:47;20.30;;;12.00;;
8327;SDS011;4201;48.754;8.864;2022-12-11T02:19:17;20.40;;;12.90;;
8327;SDS011;4201;48.754;8.864;2022-12-11T02:21:48;19.23;;;11.63;;
8327;SDS011;4201;48.754;8.864;2022-12-11T02:24:20;20.63;;;10.67;;
8327;SDS011;4201;48.754;8.864;2022-12-11T02:27:00;16.27;;;10.43;;
8327;SDS011;4201;48.754;8.864;2022-12-11T02:29:32;19.77;;;12.57;;
8327;SDS011;4201;48.754;8.864;2022-12-11T02:32:01;18.60;;;11.90;;
8327;SDS011;4201;48.754;8.864;2022-12-11T02:34:30;18.93;;;10.77;;
8327;SDS011;4201;48.754;8.864;2022-12-11T02:36:59;20.70;;;14.03;;
8327;SDS011;4201;48.754;8.864;2022-12-11T02:39:27;23.10;;;14.50;;
8327;SDS011;4201;48.754;8.864;2022-12-11T02:41:54;24.80;;;13.73;;
8327;SDS011;4201;48.754;8.864;2022-12-11T02:44:22;22.27;;;13.93;;
8327;SDS011;4201;48.754;8.864;2022-12-11T02:46:51;25.10;;;15.80;;
8327;SDS011;4201;48.754;8.864;2022-12-11T02:49:17;23.60;;;14.40;;
8327;SDS011;4201;48.754;8.864;2022-12-11T02:51:45;28.27;;;17.13;;
8327;SDS011;4201;48.754;8.864;2022-12-11T02:54:13;29.77;;;17.23;;
8327;SDS011;4201;48.754;8.864;2022-12-11T02:56:42;31.77;;;17.30;;
8327;SDS011;4201;48.754;8.864;2022-12-11T02:59:12;30.47;;;17.63;;
8327;SDS011;4201;48.754;8.864;2022-12-11T03:01:39;26.70;;;16.90;;
8327;SDS011;4201;48.754;8.864;2022-12-11T03:04:07;26.83;;;18.17;;
8327;SDS011;4201;48.754;8.864;2022-12-11T03:06:35;29.67;;;18.13;;
8327;SDS011;4201;48.754;8.864;2022-12-11T03:09:01;29.93;;;18.27;;
8327;SDS011;4201;48.754;8.864;2022-12-11T03:11:28;25.90;;;16.63;;
8327;SDS011;4201;48.754;8.864;2022-12-11T03:13:54;33.13;;;17.20;;
8327;SDS011;4201;48.754;8.864;2022-12-11T03:16:22;26.40;;;18.07;;
8327;SDS011;4201;48.754;8.864;2022-12-11T03:18:51;24.70;;;15.20;;
8327;SDS011;4201;48.754;8.864;2022-12-11T03:21:23;28.10;;;16.27;;
8327;SDS011;4201;48.754;8.864;2022-12-11T03:23:51;28.47;;;17.10;;
8327;SDS011;4201;48.754;8.864;2022-12-11T03:26:20;27.17;;;16.13;;
8327;SDS011;4201;48.754;8.864;2022-12-11T03:28:48;24.10;;;15.40;;
8327;SDS011;4201;48.754;8.864;2022-12-11T03:31:17;27.07;;;16.30;;
8327;SDS011;4201;48.754;8.864;2022-12-11T03:33:46;25.43;;;14.83;;
8327;SDS011;4201;48.754;8.864;2022-12-11T03:36:16;25.77;;;16.13;;
8327;SDS011;4201;48.754;8.864;2022-12-11T03:38:46;24.17;;;14.90;;
8327;SDS011;4201;48.754;8.864;2022-12-11T03:41:14;24.90;;;15.20;;
8327;SDS011;4201;48.754;8.864;2022-12-11T03:43:41;27.37;;;16.77;;
8327;SDS011;4201;48.754;8.864;2022-12-11T03:46:07;27.60;;;17.10;;
8327;SDS011;4201;48.754;8.864;2022-12-11T03:48:35;27.40;;;17.20;;
8327;SDS011;4201;48.754;8.864;2022-12-11T03:51:04;25.30;;;15.77;;
8327;SDS011;4201;48.754;8.864;2022-12-11T03:53:31;26.20;;;16.60;;
8327;SDS011;4201;48.754;8.864;2022-12-11T03:55:59;27.30;;;16.73;;
8327;SDS011;4201;48.754;8.864;2022-12-11T03:58:26;26.80;;;16.20;;
8327;SDS011;4201;48.754;8.864;2022-12-11T04:00:52;25.33;;;16.37;;
8327;SDS011;4201;48.754;8.864;2022-12-11T04:03:19;26.40;;;17.00;;
8327;SDS011;4201;48.754;8.864;2022-12-11T04:05:46;25.20;;;16.07;;
8327;SDS011;4201;48.754;8.864;2022-12-11T04:08:12;28.33;;;17.37;;
8327;SDS011;4201;48.754;8.864;2022-12-11T04:10:39;31.53;;;16.80;;
8327;SDS011;4201;48.754;8.864;2022-12-11T04:13:07;27.90;;;17.90;;
8327;SDS011;4201;48.754;8.864;2022-12-11T04:15:34;24.47;;;16.30;;
8327;SDS011;4201;48.754;8.864;2022-12-11T04:18:00;25.20;;;15.97;;
8327;SDS011;4201;48.754;8.864;2022-12-11T04:20:43;26.30;;;16.40;;
8327;SDS011;4201;48.754;8.864;2022-12-11T04:23:27;24.20;;;15.60;;
8327;SDS011;4201;48.754;8.864;2022-12-11T07:49:19;25.73;;;14.30;;
8327;SDS011;4201;48.754;8.864;2022-12-11T07:51:45;24.33;;;15.23;;
8327;SDS011;4201;48.754;8.864;2022-12-11T07:54:12;31.47;;;18.53;;
8327;SDS011;4201;48.754;8.864;2022-12-11T07:56:40;32.83;;;17.80;;
8327;SDS011;4201;48.754;8.864;2022-12-11T07:59:06;25.90;;;17.00;;
8327;SDS011;4201;48.754;8.864;2022-12-11T08:01:34;26.67;;;16.13;;
8327;SDS011;4201;48.754;8.864;2022-12-11T08:04:01;29.90;;;16.17;;
8327;SDS011;4201;48.754;8.864;2022-12-11T08:06:30;28.13;;;16.60;;
8327;SDS011;4201;48.754;8.864;2022-12-11T08:08:57;26.60;;;16.23;;
8327;SDS011;4201;48.754;8.864;2022-12-11T08:11:24;31.90;;;19.57;;
8327;SDS011;4201;48.754;8.864;2022-12-11T08:13:50;29.87;;;19.47;;
8327;SDS011;4201;48.754;8.864;2022-12-11T08:16:17;29.73;;;18.07;;
8327;SDS011;4201;48.754;8.864;2022-12-11T08:18:44;30.00;;;17.00;;
8327;SDS011;4201;48.754;8.864;2022-12-11T08:21:12;30.97;;;18.60;;
8327;SDS011;4201;48.754;8.864;2022-12-11T08:23:40;25.10;;;18.10;;
8327;SDS011;4201;48.754;8.864;2022-12-11T08:26:25;31.30;;;16.93;;
8327;SDS011;4201;48.754;8.864;2022-12-11T08:32:17;33.77;;;21.50;;
8327;SDS011;4201;48.754;8.864;2022-12-11T08:34:49;29.00;;;19.07;;
8327;SDS011;4201;48.754;8.864;2022-12-11T08:37:17;45.63;;;24.03;;
8327;SDS011;4201;48.754;8.864;2022-12-11T08:42:32;31.27;;;20.70;;
8327;SDS011;4201;48.754;8.864;2022-12-11T08:47:33;33.67;;;20.10;;
8327;SDS011;4201;48.754;8.864;2022-12-11T08:49:59;34.07;;;21.30;;
8327;SDS011;4201;48.754;8.864;2022-12-11T08:52:33;32.43;;;19.57;;
8327;SDS011;4201;48.754;8.864;2022-12-11T08:55:01;32.10;;;17.90;;
8327;SDS011;4201;48.754;8.864;2022-12-11T08:57:28;34.30;;;20.27;;
8327;SDS011;4201;48.754;8.864;2022-12-11T08:59:55;45.20;;;26.27;;
8327;SDS011;4201;48.754;8.864;2022-12-11T09:02:22;36.10;;;21.77;;
8327;SDS011;4201;48.754;8.864;2022-12-11T09:04:48;28.97;;;18.40;;
8327;SDS011;4201;48.754;8.864;2022-12-11T09:07:14;28.23;;;18.00;;
8327;SDS011;4201;48.754;8.864;2022-12-11T09:09:41;29.97;;;18.80;;
8327;SDS011;4201;48.754;8.864;2022-12-11T09:12:07;30.60;;;19.00;;
8327;SDS011;4201;48.754;8.864;2022-12-11T09:14:33;35.37;;;20.33;;
8327;SDS011;4201;48.754;8.864;2022-12-11T09:17:02;30.30;;;18.73;;
8327;SDS011;4201;48.754;8.864;2022-12-11T09:19:29;39.27;;;21.80;;
8327;SDS011;4201;48.754;8.864;2022-12-11T09:21:55;40.47;;;20.47;;
8327;SDS011;4201;48.754;8.864;2022-12-11T09:27:12;37.90;;;20.40;;
8327;SDS011;4201;48.754;8.864;2022-12-11T09:29:39;42.63;;;27.30;;
8327;SDS011;4201;48.754;8.864;2022-12-11T09:32:07;47.57;;;29.73;;
8327;SDS011;4201;48.754;8.864;2022-12-11T09:34:33;43.23;;;24.77;;
8327;SDS011;4201;48.754;8.864;2022-12-11T09:36:59;36.67;;;23.30;;
8327;SDS011;4201;48.754;8.864;2022-12-11T09:39:26;35.90;;;24.20;;
8327;SDS011;4201;48.754;8.864;2022-12-11T09:41:54;40.53;;;22.47;;
8327;SDS011;4201;48.754;8.864;2022-12-11T09:44:37;41.90;;;25.80;;
8327;SDS011;4201;48.754;8.864;2022-12-11T09:49:39;29.43;;;17.57;;
8327;SDS011;4201;48.754;8.864;2022-12-11T09:52:11;32.73;;;17.83;;
8327;SDS011;4201;48.754;8.864;2022-12-11T09:54:39;33.60;;;20.87;;
8327;SDS011;4201;48.754;8.864;2022-12-11T09:57:11;30.87;;;18.70;;
8327;SDS011;4201;48.754;8.864;2022-12-11T09:59:40;31.03;;;18.53;;
8327;SDS011;4201;48.754;8.864;2022-12-11T10:02:16;34.50;;;21.20;;
8327;SDS011;4201;48.754;8.864;2022-12-11T10:04:48;28.80;;;19.93;;
8327;SDS011;4201;48.754;8.864;2022-12-11T10:07:19;31.17;;;18.93;;
8327;SDS011;4201;48.754;8.864;2022-12-11T10:09:47;27.43;;;18.20;;
8327;SDS011;4201;48.754;8.864;2022-12-11T10:12:18;32.67;;;20.33;;
8327;SDS011;4201;48.754;8.864;2022-12-11T10:14:53;30.50;;;18.73;;
8327;SDS011;4201;48.754;8.864;2022-12-11T10:17:22;24.37;;;15.93;;
8327;SDS011;4201;48.754;8.864;2022-12-11T10:19:51;28.83;;;17.37;;
8327;SDS011;4201;48.754;8.864;2022-12-11T10:22:19;33.10;;;19.60;;
8327;SDS011;4201;48.754;8.864;2022-12-11T10:24:48;38.90;;;22.53;;
8327;SDS011;4201;48.754;8.864;2022-12-11T10:27:20;30.63;;;20.50;;
8327;SDS011;4201;48.754;8.864;2022-12-11T10:29:47;32.60;;;20.40;;
8327;SDS011;4201;48.754;8.864;2022-12-11T10:32:20;35.53;;;21.80;;
8327;SDS011;4201;48.754;8.864;2022-12-11T10:34:47;31.50;;;20.13;;
8327;SDS011;4201;48.754;8.864;2022-12-11T10:37:15;27.93;;;18.80;;
8327;SDS011;4201;48.754;8.864;2022-12-11T10:39:42;32.63;;;19.23;;
8327;SDS011;4201;48.754;8.864;2022-12-11T10:42:12;29.00;;;19.50;;
8327;SDS011;4201;48.754;8.864;2022-12-11T10:44:40;25.87;;;16.10;;
8327;SDS011;4201;48.754;8.864;2022-12-11T10:47:09;30.87;;;20.47;;
8327;SDS011;4201;48.754;8.864;2022-12-11T10:49:36;26.53;;;16.93;;
8327;SDS011;4201;48.754;8.864;2022-12-11T10:52:08;33.63;;;21.60;;
8327;SDS011;4201;48.754;8.864;2022-12-11T10:54:37;30.80;;;18.53;;
8327;SDS011;4201;48.754;8.864;2022-12-11T10:57:04;25.37;;;15.20;;
8327;SDS011;4201;48.754;8.864;2022-12-11T10:59:32;33.60;;;21.67;;
8327;SDS011;4201;48.754;8.864;2022-12-11T11:01:59;27.20;;;16.97;;
8327;SDS011;4201;48.754;8.864;2022-12-11T11:04:26;28.40;;;17.17;;
8327;SDS011;4201;48.754;8.864;2022-12-11T11:07:01;37.80;;;24.37;;
8327;SDS011;4201;48.754;8.864;2022-12-11T11:09:28;29.53;;;19.87;;
8327;SDS011;4201;48.754;8.864;2022-12-11T11:11:56;31.63;;;18.00;;
8327;SDS011;4201;48.754;8.864;2022-12-11T11:14:23;26.30;;;16.27;;
8327;SDS011;4201;48.754;8.864;2022-12-11T11:16:50;21.90;;;14.10;;
8327;SDS011;4201;48.754;8.864;2022-12-11T11:19:17;27.23;;;17.23;;
8327;SDS011;4201;48.754;8.864;2022-12-11T11:21:46;26.97;;;16.43;;
8327;SDS011;4201;48.754;8.864;2022-12-11T11:24:18;27.87;;;18.10;;
8327;SDS011;4201;48.754;8.864;2022-12-11T11:26:46;25.37;;;16.80;;
8327;SDS011;4201;48.754;8.864;2022-12-11T11:29:18;81.93;;;40.50;;
8327;SDS011;4201;48.754;8.864;2022-12-11T11:31:47;35.37;;;24.80;;
8327;SDS011;4201;48.754;8.864;2022-12-11T11:34:15;29.47;;;17.83;;
8327;SDS011;4201;48.754;8.864;2022-12-11T11:36:43;23.50;;;16.30;;
8327;SDS011;4201;48.754;8.864;2022-12-11T11:39:22;23.37;;;16.67;;
8327;SDS011;4201;48.754;8.864;2022-12-11T11:41:52;24.43;;;15.37;;
8327;SDS011;4201;48.754;8.864;2022-12-11T11:44:24;31.43;;;16.60;;
8327;SDS011;4201;48.754;8.864;2022-12-11T11:46:54;25.60;;;14.23;;
8327;SDS011;4201;48.754;8.864;2022-12-11T11:49:23;28.53;;;17.80;;
8327;SDS011;4201;48.754;8.864;2022-12-11T11:51:54;22.50;;;15.40;;
8327;SDS011;4201;48.754;8.864;2022-12-11T11:54:24;23.40;;;16.63;;
8327;SDS011;4201;48.754;8.864;2022-12-11T11:56:53;26.30;;;15.40;;
8327;SDS011;4201;48.754;8.864;2022-12-11T11:59:22;42.40;;;25.80;;
8327;SDS011;4201;48.754;8.864;2022-12-11T12:01:53;30.17;;;19.60;;
8327;SDS011;4201;48.754;8.864;2022-12-11T12:04:20;27.57;;;16.87;;
8327;SDS011;4201;48.754;8.864;2022-12-11T12:06:59;26.60;;;15.80;;
8327;SDS011;4201;48.754;8.864;2022-12-11T12:09:31;28.70;;;15.30;;
8327;SDS011;4201;48.754;8.864;2022-12-11T12:12:03;34.37;;;17.97;;
8327;SDS011;4201;48.754;8.864;2022-12-11T12:14:34;27.63;;;18.87;;
8327;SDS011;4201;48.754;8.864;2022-12-11T12:17:16;62.00;;;37.07;;
8327;SDS011;4201;48.754;8.864;2022-12-11T12:19:49;50.23;;;39.60;;
8327;SDS011;4201;48.754;8.864;2022-12-11T12:25:17;30.13;;;19.47;;
8327;SDS011;4201;48.754;8.864;2022-12-11T12:49:26;19.90;;;14.17;;
8327;SDS011;4201;48.754;8.864;2022-12-11T12:51:53;23.57;;;15.17;;
8327;SDS011;4201;48.754;8.864;2022-12-11T12:54:23;23.33;;;15.10;;
8327;SDS011;4201;48.754;8.864;2022-12-11T12:56:56;28.47;;;17.37;;
8327;SDS011;4201;48.754;8.864;2022-12-11T12:59:24;25.17;;;15.30;;
8327;SDS011;4201;48.754;8.864;2022-12-11T13:01:54;23.87;;;16.30;;
8327;SDS011;4201;48.754;8.864;2022-12-11T13:07:11;26.43;;;15.57;;
8327;SDS011;4201;48.754;8.864;2022-12-11T13:09:39;23.70;;;15.13;;
8327;SDS011;4201;48.754;8.864;2022-12-11T13:12:11;27.60;;;16.87;;
8327;SDS011;4201;48.754;8.864;2022-12-11T13:14:38;20.70;;;14.43;;
8327;SDS011;4201;48.754;8.864;2022-12-11T13:17:06;21.13;;;14.50;;
8327;SDS011;4201;48.754;8.864;2022-12-11T13:19:33;23.17;;;15.23;;
8327;SDS011;4201;48.754;8.864;2022-12-11T15:36:57;54.67;;;32.33;;
8327;SDS011;4201;48.754;8.864;2022-12-11T15:39:27;35.30;;;21.90;;
8327;SDS011;4201;48.754;8.864;2022-12-11T15:41:56;36.07;;;20.93;;
8327;SDS011;4201;48.754;8.864;2022-12-11T15:44:24;34.00;;;20.63;;
8327;SDS011;4201;48.754;8.864;2022-12-11T15:46:51;36.30;;;21.97;;
8327;SDS011;4201;48.754;8.864;2022-12-11T15:49:22;30.77;;;20.20;;
8327;SDS011;4201;48.754;8.864;2022-12-11T15:51:51;33.10;;;22.30;;
8327;SDS011;4201;48.754;8.864;2022-12-11T15:54:23;36.10;;;22.40;;
8327;SDS011;4201;48.754;8.864;2022-12-11T15:56:50;40.40;;;24.00;;
8327;SDS011;4201;48.754;8.864;2022-12-11T15:59:19;41.80;;;24.30;;
8327;SDS011;4201;48.754;8.864;2022-12-11T16:01:46;39.20;;;22.07;;
8327;SDS011;4201;48.754;8.864;2022-12-11T16:04:12;33.87;;;21.73;;
8327;SDS011;4201;48.754;8.864;2022-12-11T16:06:39;35.40;;;21.53;;
8327;SDS011;4201;48.754;8.864;2022-12-11T16:09:10;41.83;;;28.43;;
8327;SDS011;4201;48.754;8.864;2022-12-11T16:11:39;37.60;;;22.27;;
8327;SDS011;4201;48.754;8.864;2022-12-11T16:14:08;38.23;;;25.67;;
8327;SDS011;4201;48.754;8.864;2022-12-11T16:16:38;42.87;;;32.27;;
8327;SDS011;4201;48.754;8.864;2022-12-11T16:19:04;45.40;;;26.33;;
8327;SDS011;4201;48.754;8.864;2022-12-11T16:21:34;43.37;;;27.40;;
8327;SDS011;4201;48.754;8.864;2022-12-11T16:24:01;40.77;;;25.67;;
8327;SDS011;4201;48.754;8.864;2022-12-11T16:26:29;45.20;;;25.00;;
8327;SDS011;4201;48.754;8.864;2022-12-11T16:28:58;43.03;;;27.03;;
